Time;durP1;ratioP1;P1;durP2;ratioP2;P2;SDS_P1;SDS_P2;PMS_P1;PMS_P2;Temp;Humidity;BMP_temperature;BMP_pressure;BME280_temperature;BME280_humidity;BME280_pressure;Samples;Min_cycle;Max_cycle;Signal;HPM_P1;HPM_P2
2021/08/23 00:00:08;;;;;;;5.65;5.15;;;;;;;16.59;100.00;101214.94;5051012;28;20187;-78
2021/08/23 00:02:35;;;;;;;6.45;5.47;;;;;;;16.68;100.00;101217.78;5019189;28;20270;-77
2021/08/23 00:05:04;;;;;;;7.82;5.22;;;;;;;16.70;100.00;101226.53;5035191;28;20301;-78
2021/08/23 00:07:29;;;;;;;6.63;5.20;;;;;;;16.67;100.00;101218.91;5027469;28;20224;-78
2021/08/23 00:09:57;;;;;;;6.32;4.95;;;;;;;16.67;100.00;101216.97;5043034;28;20203;-78
2021/08/23 00:12:24;;;;;;;6.87;5.37;;;;;;;16.64;100.00;101217.56;5051708;28;20254;-80
2021/08/23 00:14:53;;;;;;;5.90;5.30;;;;;;;16.52;100.00;101210.94;5018384;28;20221;-78
2021/08/23 00:17:19;;;;;;;5.85;5.18;;;;;;;16.58;100.00;101210.53;5026627;28;20216;-77
2021/08/23 00:19:51;;;;;;;7.00;5.23;;;;;;;16.57;100.00;101211.66;5028883;28;20188;-77
2021/08/23 00:22:20;;;;;;;6.00;5.40;;;;;;;16.62;100.00;101214.31;5019265;28;20407;-79
2021/08/23 00:24:47;;;;;;;5.72;5.13;;;;;;;16.64;100.00;101216.75;5015243;28;20223;-79
2021/08/23 00:27:13;;;;;;;6.07;5.47;;;;;;;16.58;100.00;101213.28;5042836;28;20211;-79
2021/08/23 00:29:48;;;;;;;6.30;5.47;;;;;;;16.66;100.00;101220.03;5059569;28;20172;-79
2021/08/23 00:32:16;;;;;;;8.17;5.43;;;;;;;16.69;100.00;101224.91;5031392;28;20224;-79
2021/08/23 00:34:42;;;;;;;7.27;5.53;;;;;;;16.64;100.00;101217.56;5005745;28;20198;-79
2021/08/23 00:37:12;;;;;;;5.43;4.93;;;;;;;16.64;100.00;101217.56;5041905;28;20712;-78
2021/08/23 00:39:42;;;;;;;5.57;4.97;;;;;;;16.72;100.00;101216.06;5017612;28;20180;-79
2021/08/23 00:42:09;;;;;;;5.25;4.75;;;;;;;16.62;100.00;101213.50;5067302;28;20224;-78
2021/08/23 00:44:43;;;;;;;6.53;4.90;;;;;;;16.63;100.00;101215.16;5052180;28;20566;-77
2021/08/23 00:47:10;;;;;;;6.15;5.18;;;;;;;16.61;100.00;101215.44;5019411;28;20235;-78
2021/08/23 00:49:36;;;;;;;6.23;5.23;;;;;;;16.60;100.00;101222.03;5014753;28;20238;-77
2021/08/23 00:52:03;;;;;;;6.13;5.30;;;;;;;16.63;100.00;101215.94;5047207;28;20223;-77
2021/08/23 00:54:31;;;;;;;7.15;5.40;;;;;;;16.55;100.00;101224.03;5016915;28;20918;-79
2021/08/23 00:56:56;;;;;;;6.77;5.03;;;;;;;16.48;100.00;101217.28;5034562;28;20219;-76
2021/08/23 00:59:25;;;;;;;6.23;5.13;;;;;;;16.52;100.00;101213.66;5034294;28;20294;-77
2021/08/23 01:02:11;;;;;;;6.57;5.13;;;;;;;16.46;100.00;101214.03;5066578;28;20215;-76
2021/08/23 01:05:10;;;;;;;5.83;5.07;;;;;;;16.48;100.00;101211.81;5051844;28;20265;-78
2021/08/23 01:07:40;;;;;;;6.40;5.50;;;;;;;16.48;100.00;101220.03;5033277;28;20289;-77
2021/08/23 01:10:07;;;;;;;6.50;5.60;;;;;;;16.49;100.00;101213.44;5051833;28;20190;-77
2021/08/23 01:12:33;;;;;;;7.10;5.67;;;;;;;16.41;100.00;101225.06;5032105;28;20218;-77
2021/08/23 01:15:03;;;;;;;7.03;5.23;;;;;;;16.50;100.00;101223.28;5050812;28;20199;-78
2021/08/23 01:17:31;;;;;;;6.00;5.17;;;;;;;16.54;100.00;101233.38;5018303;28;20629;-77
2021/08/23 01:19:59;;;;;;;7.27;5.23;;;;;;;16.55;100.00;101234.19;5017400;28;20184;-77
2021/08/23 01:22:25;;;;;;;5.97;5.33;;;;;;;16.61;100.00;101240.13;5017365;28;20226;-77
2021/08/23 01:24:52;;;;;;;5.88;5.35;;;;;;;16.71;100.00;101250.13;5017791;28;20230;-77
2021/08/23 01:27:20;;;;;;;5.78;5.22;;;;;;;16.76;100.00;101237.16;5033379;28;20234;-77
2021/08/23 01:30:06;;;;;;;5.93;5.30;;;;;;;16.80;100.00;101234.63;5034291;28;20214;-77
2021/08/23 01:32:34;;;;;;;6.95;5.43;;;;;;;16.77;100.00;101240.69;5031747;28;20216;-78
2021/08/23 01:35:04;;;;;;;6.85;5.32;;;;;;;16.81;100.00;101239.81;4999103;28;20253;-79
2021/08/23 01:37:33;;;;;;;8.13;5.50;;;;;;;16.80;100.00;101237.38;5025349;28;20754;-78
2021/08/23 01:39:58;;;;;;;7.43;5.63;;;;;;;16.89;100.00;101244.63;5037639;28;20175;-78
2021/08/23 01:42:24;;;;;;;6.63;5.13;;;;;;;16.76;100.00;101242.63;5017013;28;20229;-78
2021/08/23 01:44:50;;;;;;;7.43;5.43;;;;;;;16.67;100.00;101243.63;5036102;28;20223;-78
2021/08/23 01:47:16;;;;;;;7.55;5.10;;;;;;;16.61;100.00;101251.09;5065324;28;20721;-77
2021/08/23 01:49:43;;;;;;;6.85;5.18;;;;;;;16.61;100.00;101250.25;5046727;28;20190;-79
2021/08/23 01:52:14;;;;;;;5.90;4.72;;;;;;;16.61;100.00;101250.25;5037846;28;20215;-77
2021/08/23 01:54:43;;;;;;;5.63;4.32;;;;;;;16.58;100.00;101246.19;5034308;28;20693;-78
2021/08/23 01:57:17;;;;;;;5.35;4.40;;;;;;;16.53;100.00;101247.41;5030221;28;20235;-79
2021/08/23 01:59:48;;;;;;;4.70;4.30;;;;;;;16.50;100.00;101247.97;5015451;28;20188;-78
2021/08/23 02:02:13;;;;;;;7.80;4.68;;;;;;;16.48;100.00;101252.94;5030147;28;20277;-78
2021/08/23 02:04:41;;;;;;;5.82;4.40;;;;;;;16.51;100.00;101249.63;5037440;28;20211;-77
2021/08/23 02:07:12;;;;;;;4.88;4.30;;;;;;;16.55;100.00;101242.41;5030082;28;20241;-78
2021/08/23 02:09:37;;;;;;;6.38;4.53;;;;;;;16.45;100.00;101250.81;5020687;28;20222;-76
2021/08/23 02:12:03;;;;;;;7.10;4.13;;;;;;;16.39;100.00;101247.31;5055614;28;20723;-77
2021/08/23 02:14:31;;;;;;;7.32;4.00;;;;;;;16.44;100.00;101249.16;5053614;28;20206;-78
2021/08/23 02:16:59;;;;;;;6.03;4.30;;;;;;;16.42;100.00;101248.66;5050720;28;20219;-78
2021/08/23 02:19:27;;;;;;;5.70;4.20;;;;;;;16.43;100.00;101253.84;5056406;28;20220;-78
2021/08/23 02:21:56;;;;;;;5.40;3.90;;;;;;;16.56;100.00;101248.44;5061933;28;20239;-78
2021/08/23 02:24:24;;;;;;;6.50;4.25;;;;;;;16.51;100.00;101252.38;5065496;28;20234;-77
2021/08/23 02:26:52;;;;;;;6.38;3.90;;;;;;;16.44;100.00;101260.13;5064504;28;20227;-78
2021/08/23 02:29:20;;;;;;;6.30;3.88;;;;;;;16.55;100.00;101267.91;5032535;28;20172;-79
2021/08/23 02:31:45;;;;;;;6.80;3.83;;;;;;;16.59;100.00;101264.31;5019943;28;20226;-77
2021/08/23 02:34:13;;;;;;;5.50;3.70;;;;;;;16.63;100.00;101270.81;5001905;28;20207;-77
2021/08/23 02:36:41;;;;;;;5.03;3.70;;;;;;;16.57;100.00;101273.94;5014049;28;20208;-77
2021/08/23 02:39:07;;;;;;;6.68;4.00;;;;;;;16.61;100.00;101277.69;5013871;28;20173;-77
2021/08/23 02:41:32;;;;;;;6.25;4.03;;;;;;;16.66;100.00;101277.63;5016479;28;20657;-77
2021/08/23 02:43:58;;;;;;;5.20;3.42;;;;;;;16.58;100.00;101278.31;5017346;28;20208;-77
2021/08/23 02:46:23;;;;;;;4.95;4.00;;;;;;;16.69;100.00;101280.59;5022158;28;20697;-78
2021/08/23 02:48:49;;;;;;;7.67;4.13;;;;;;;16.71;100.00;101283.88;5034436;28;20192;-78
2021/08/23 02:51:15;;;;;;;6.03;3.73;;;;;;;16.68;100.00;101289.97;5038680;28;20219;-78
2021/08/23 02:53:42;;;;;;;5.67;3.90;;;;;;;16.76;100.00;101292.03;5020641;28;20697;-79
2021/08/23 02:56:10;;;;;;;7.65;3.67;;;;;;;16.71;100.00;101289.34;5020120;28;20223;-77
2021/08/23 02:58:37;;;;;;;5.37;3.67;;;;;;;16.70;100.00;101290.47;5016820;28;20666;-77
2021/08/23 03:01:04;;;;;;;4.47;3.47;;;;;;;16.64;100.00;101294.38;5033045;28;20258;-78
2021/08/23 03:03:36;;;;;;;6.13;3.70;;;;;;;16.52;100.00;101300.59;5020323;28;20281;-77
2021/08/23 03:06:01;;;;;;;4.55;3.60;;;;;;;16.62;100.00;101288.38;5036427;28;20235;-78
2021/08/23 03:08:28;;;;;;;5.83;3.37;;;;;;;16.73;100.00;101297.28;5016154;28;20267;-76
2021/08/23 03:11:04;;;;;;;6.37;3.80;;;;;;;16.58;100.00;101292.84;5034231;28;20231;-77
2021/08/23 03:13:35;;;;;;;4.13;3.40;;;;;;;16.64;100.00;101293.59;5034661;28;20212;-76
2021/08/23 03:16:04;;;;;;;4.93;3.63;;;;;;;16.59;100.00;101299.13;5036093;28;20294;-77
2021/08/23 03:18:32;;;;;;;4.50;3.00;;;;;;;16.67;100.00;101296.56;5028386;28;20194;-77
2021/08/23 03:21:00;;;;;;;4.07;2.92;;;;;;;16.67;100.00;101293.81;5033394;28;20305;-78
2021/08/23 03:23:26;;;;;;;3.40;3.10;;;;;;;16.63;100.00;101292.78;5021114;28;20568;-78
2021/08/23 03:25:51;;;;;;;4.97;3.42;;;;;;;16.61;100.00;101300.50;5048892;28;20270;-76
2021/08/23 03:28:19;;;;;;;5.03;3.20;;;;;;;16.63;100.00;101303.75;5035862;28;20183;-77
2021/08/23 03:30:47;;;;;;;3.83;3.05;;;;;;;16.63;100.00;101294.72;5051987;28;20223;-77
2021/08/23 03:33:13;;;;;;;5.93;3.08;;;;;;;16.64;100.00;101299.88;5035862;28;20191;-77
2021/08/23 03:35:39;;;;;;;6.23;3.17;;;;;;;16.58;100.00;101295.56;5052185;28;20251;-76
2021/08/23 03:38:09;;;;;;;3.60;3.20;;;;;;;16.51;100.00;101294.31;5051851;28;20184;-78
2021/08/23 03:40:35;;;;;;;5.10;2.97;;;;;;;16.49;100.00;101295.72;5035882;28;20258;-77
2021/08/23 03:43:00;;;;;;;6.17;3.17;;;;;;;16.49;100.00;101291.06;5035522;28;20263;-79
2021/08/23 03:45:28;;;;;;;4.55;2.90;;;;;;;16.45;100.00;101290.03;5032221;28;20239;-77
2021/08/23 03:47:54;;;;;;;3.30;3.00;;;;;;;16.49;100.00;101293.78;5032579;28;20198;-77
2021/08/23 03:50:24;;;;;;;3.87;3.13;;;;;;;16.56;100.00;101299.75;5035112;28;20562;-78
2021/08/23 03:52:52;;;;;;;3.78;3.00;;;;;;;16.41;100.00;101299.13;5049946;28;20258;-77
2021/08/23 03:55:22;;;;;;;3.33;2.83;;;;;;;16.33;100.00;101299.78;5002424;28;20195;-77
2021/08/23 03:57:52;;;;;;;3.43;2.73;;;;;;;16.29;100.00;101305.03;5016327;28;20195;-78
2021/08/23 04:00:18;;;;;;;3.67;2.90;;;;;;;16.32;100.00;101306.38;5031630;28;20234;-77
2021/08/23 04:02:45;;;;;;;4.03;2.88;;;;;;;16.23;100.00;101302.66;5019296;28;20646;-78
2021/08/23 04:05:11;;;;;;;3.77;2.80;;;;;;;16.18;100.00;101311.75;5041284;28;20265;-77
2021/08/23 04:07:36;;;;;;;3.75;2.80;;;;;;;16.19;100.00;101318.06;5053694;28;20190;-78
2021/08/23 04:10:05;;;;;;;5.00;2.37;;;;;;;16.14;100.00;101311.81;5018152;28;20195;-78
2021/08/23 04:12:31;;;;;;;5.10;2.80;;;;;;;16.15;100.00;101316.97;5041313;28;20294;-78
2021/08/23 04:15:01;;;;;;;2.83;2.40;;;;;;;16.15;100.00;101322.44;5032197;28;20212;-77
2021/08/23 04:17:29;;;;;;;5.07;2.60;;;;;;;16.13;100.00;101319.19;5035185;28;20215;-77
2021/08/23 04:19:59;;;;;;;4.13;2.20;;;;;;;16.19;100.00;101326.28;5068069;28;20593;-79
2021/08/23 04:22:27;;;;;;;4.10;2.20;;;;;;;16.23;100.00;101322.66;5030819;28;20290;-79
2021/08/23 04:24:56;;;;;;;5.25;2.78;;;;;;;16.17;100.00;101325.72;5054195;28;20212;-78
2021/08/23 04:27:24;;;;;;;4.47;2.10;;;;;;;16.22;100.00;101333.91;5018511;28;20230;-77
2021/08/23 04:29:55;;;;;;;3.33;2.10;;;;;;;16.32;100.00;101334.63;5018285;28;20202;-77
2021/08/23 04:32:23;;;;;;;2.63;2.00;;;;;;;16.33;100.00;101346.41;5035337;28;20262;-77
2021/08/23 04:34:50;;;;;;;2.78;2.05;;;;;;;16.25;100.00;101338.81;4999603;28;20649;-77
2021/08/23 04:37:18;;;;;;;4.00;1.80;;;;;;;16.19;100.00;101340.81;5031551;28;20220;-76
2021/08/23 04:39:47;;;;;;;2.83;2.10;;;;;;;16.24;100.00;101348.16;5018938;28;20188;-77
2021/08/23 04:42:12;;;;;;;4.47;1.90;;;;;;;16.08;100.00;101338.44;5019593;28;20243;-75
2021/08/23 04:44:43;;;;;;;3.50;2.10;;;;;;;16.11;100.00;101353.50;5040194;28;20203;-78
2021/08/23 04:47:14;;;;;;;3.97;2.00;;;;;;;16.13;100.00;101345.78;5039509;28;20219;-81
2021/08/23 04:49:39;;;;;;;4.25;1.95;;;;;;;16.13;100.00;101357.56;5084149;28;20270;-80
2021/08/23 04:52:05;;;;;;;3.40;1.63;;;;;;;16.06;100.00;101359.84;5028935;28;20225;-80
2021/08/23 04:54:33;;;;;;;5.77;1.97;;;;;;;16.02;100.00;101364.25;5072272;28;20245;-78
2021/08/23 04:57:01;;;;;;;2.83;1.83;;;;;;;16.07;100.00;101358.72;5038593;28;20215;-80
2021/08/23 04:59:29;;;;;;;5.82;1.70;;;;;;;16.08;100.00;101371.34;5035567;28;20176;-76
2021/08/23 05:01:59;;;;;;;2.77;1.77;;;;;;;16.09;100.00;101366.66;5035110;28;20239;-76
2021/08/23 05:04:25;;;;;;;3.80;2.00;;;;;;;16.15;100.00;101370.97;5034367;28;20275;-78
2021/08/23 05:06:53;;;;;;;3.80;1.80;;;;;;;16.11;100.00;101368.00;5034079;28;20291;-77
2021/08/23 05:09:21;;;;;;;3.00;1.70;;;;;;;16.14;100.00;101375.66;5069216;28;20186;-79
2021/08/23 05:11:47;;;;;;;2.83;1.85;;;;;;;16.09;100.00;101383.94;5003982;28;20227;-77
2021/08/23 05:14:15;;;;;;;3.83;1.60;;;;;;;16.16;100.00;101373.44;5030813;28;20686;-78
2021/08/23 05:16:43;;;;;;;4.13;1.73;;;;;;;16.12;100.00;101380.63;5072907;28;20222;-77
2021/08/23 05:19:08;;;;;;;4.47;1.73;;;;;;;16.19;100.00;101386.59;5023243;28;20176;-77
2021/08/23 05:21:34;;;;;;;1.85;1.60;;;;;;;16.23;100.00;101390.41;5030618;28;20227;-79
2021/08/23 05:24:07;;;;;;;2.17;1.75;;;;;;;16.19;100.00;101389.34;5035231;28;20197;-77
2021/08/23 05:26:33;;;;;;;2.58;1.70;;;;;;;16.37;100.00;101388.56;5035348;28;20792;-76
2021/08/23 05:28:58;;;;;;;4.28;1.73;;;;;;;16.39;100.00;101394.59;5001727;28;20180;-79
2021/08/23 05:31:26;;;;;;;2.88;1.40;;;;;;;16.35;100.00;101404.50;5042764;28;20215;-77
2021/08/23 05:33:54;;;;;;;2.83;1.58;;;;;;;16.37;100.00;101402.28;5038922;28;20199;-78
2021/08/23 05:36:23;;;;;;;5.07;1.70;;;;;;;16.38;100.00;101403.94;5033664;28;20250;-77
2021/08/23 05:38:48;;;;;;;3.05;1.67;;;;;;;16.38;100.00;101399.25;5017859;28;20195;-75
2021/08/23 05:41:14;;;;;;;2.83;1.80;;;;;;;16.46;100.00;101411.50;5033572;28;20604;-77
2021/08/23 05:43:40;;;;;;;3.30;1.92;;;;;;;16.28;100.00;101404.88;5018928;28;20215;-80
2021/08/23 05:46:05;;;;;;;2.83;1.63;;;;;;;16.38;100.00;101415.72;5029109;28;20238;-80
2021/08/23 05:48:33;;;;;;;3.88;1.90;;;;;;;16.35;100.00;101404.50;5080579;28;20660;-81
2021/08/23 05:51:03;;;;;;;4.50;1.80;;;;;;;16.44;100.00;101408.25;5055069;28;20219;-75
2021/08/23 05:53:31;;;;;;;4.97;2.25;;;;;;;16.37;100.00;101413.25;5035181;28;20179;-78
2021/08/23 05:55:59;;;;;;;4.13;1.83;;;;;;;16.43;100.00;101406.63;5039261;28;20783;-76
2021/08/23 05:58:25;;;;;;;5.15;1.95;;;;;;;16.45;100.00;101409.88;5019933;28;20210;-77
2021/08/23 06:00:53;;;;;;;3.80;1.83;;;;;;;16.38;100.00;101415.72;5070088;28;20223;-76
2021/08/23 06:03:21;;;;;;;2.83;2.22;;;;;;;16.34;100.00;101411.13;5038880;28;20228;-77
2021/08/23 06:05:49;;;;;;;3.97;2.10;;;;;;;16.29;100.00;101417.47;5056026;28;20311;-75
2021/08/23 06:08:17;;;;;;;5.23;2.10;;;;;;;16.34;100.00;101413.84;5030609;28;20180;-77
2021/08/23 06:10:45;;;;;;;3.83;2.20;;;;;;;16.49;100.00;101419.16;5018705;28;20242;-76
2021/08/23 06:13:11;;;;;;;3.95;2.30;;;;;;;16.43;100.00;101420.34;5019702;28;20206;-77
2021/08/23 06:15:39;;;;;;;3.05;2.05;;;;;;;16.63;100.00;101429.16;5019940;28;20220;-78
2021/08/23 06:18:10;;;;;;;2.38;1.85;;;;;;;16.73;100.00;101429.00;5063750;28;20387;-75
2021/08/23 06:20:39;;;;;;;3.10;2.00;;;;;;;16.61;100.00;101443.16;5067027;28;20226;-78
2021/08/23 06:23:07;;;;;;;4.93;2.42;;;;;;;16.59;100.00;101434.41;5037539;28;20188;-80
2021/08/23 06:25:35;;;;;;;3.15;2.08;;;;;;;16.59;100.00;101439.88;5026098;28;20227;-79
2021/08/23 06:28:00;;;;;;;7.57;2.25;;;;;;;16.60;100.00;101425.03;5071540;28;20560;-79
2021/08/23 06:30:31;;;;;;;4.10;2.27;;;;;;;16.65;100.00;101430.47;5053684;28;20224;-79
2021/08/23 06:32:59;;;;;;;4.78;1.88;;;;;;;16.75;100.00;101441.31;5022752;28;20188;-80
2021/08/23 06:35:27;;;;;;;4.65;2.33;;;;;;;16.68;100.00;101440.88;5039207;28;20199;-82
2021/08/23 06:37:52;;;;;;;4.90;2.28;;;;;;;16.97;100.00;101441.56;5041037;28;20200;-81
2021/08/23 06:40:18;;;;;;;5.20;2.00;;;;;;;16.84;100.00;101445.03;5058807;28;21329;-79
2021/08/23 06:42:48;;;;;;;3.10;1.80;;;;;;;16.91;100.00;101442.75;5043006;28;20237;-82
2021/08/23 06:45:14;;;;;;;4.20;2.03;;;;;;;16.95;100.00;101444.63;5041908;28;20208;-75
2021/08/23 06:47:40;;;;;;;4.00;1.92;;;;;;;16.95;100.00;101457.53;5040721;28;20191;-80
2021/08/23 06:50:08;;;;;;;3.90;2.03;;;;;;;17.21;100.00;101456.09;5056568;28;20190;-81
2021/08/23 06:52:34;;;;;;;2.15;1.70;;;;;;;17.11;100.00;101458.97;5027034;28;20259;-81
2021/08/23 06:55:05;;;;;;;3.65;1.92;;;;;;;17.17;100.00;101469.59;5025447;28;20223;-80
2021/08/23 06:57:30;;;;;;;4.15;1.65;;;;;;;17.28;100.00;101464.81;5023588;28;20564;-79
2021/08/23 06:59:57;;;;;;;3.80;1.90;;;;;;;17.39;100.00;101469.84;5024900;28;20221;-80
2021/08/23 07:02:29;;;;;;;4.13;1.90;;;;;;;17.64;100.00;101474.97;5074604;28;20215;-79
2021/08/23 07:04:55;;;;;;;3.72;1.80;;;;;;;17.61;100.00;101475.56;5073077;28;20590;-80
2021/08/23 07:07:23;;;;;;;2.50;1.75;;;;;;;17.46;100.00;101473.84;5056295;28;20234;-81
2021/08/23 07:09:54;;;;;;;3.50;2.00;;;;;;;17.33;100.00;101481.22;5022622;28;20653;-79
2021/08/23 07:12:21;;;;;;;2.22;1.63;;;;;;;17.63;100.00;101479.63;5041127;28;20693;-82
2021/08/23 07:14:47;;;;;;;3.30;1.50;;;;;;;17.58;100.00;101482.47;5039096;28;20219;-77
2021/08/23 07:17:13;;;;;;;3.00;1.80;;;;;;;17.38;100.00;101491.00;5037599;28;20229;-76
2021/08/23 07:19:41;;;;;;;3.05;1.60;;;;;;;17.50;100.00;101485.88;5039579;28;20184;-81
2021/08/23 07:22:06;;;;;;;2.80;1.92;;;;;;;17.66;100.00;101495.53;5038894;28;20226;-76
2021/08/23 07:24:32;;;;;;;2.75;1.52;;;;;;;17.74;100.00;101486.59;5041285;28;20195;-77
2021/08/23 07:26:57;;;;;;;3.13;1.67;;;;;;;17.84;100.00;101491.97;5030401;28;20230;-81
2021/08/23 07:29:25;;;;;;;2.30;1.40;;;;;;;17.74;100.00;101481.09;5033888;28;20606;-77
2021/08/23 07:31:51;;;;;;;3.55;1.70;;;;;;;17.88;100.00;101499.31;5058989;28;20218;-75
2021/08/23 07:34:16;;;;;;;2.42;1.40;;;;;;;17.90;100.00;101497.06;5033694;28;20203;-81
2021/08/23 07:36:44;;;;;;;3.80;1.60;;;;;;;18.14;100.00;101503.28;5031736;28;20218;-80
2021/08/23 07:39:10;;;;;;;2.35;1.35;;;;;;;18.44;100.00;101497.25;5020132;28;20188;-80
2021/08/23 07:41:42;;;;;;;3.28;1.58;;;;;;;18.58;100.00;101509.91;5072633;28;20226;-79
2021/08/23 07:44:08;;;;;;;2.45;1.40;;;;;;;18.24;100.00;101508.59;5055866;28;20294;-79
2021/08/23 07:46:33;;;;;;;2.33;1.27;;;;;;;18.32;100.00;101506.00;5056140;28;20243;-79
2021/08/23 07:49:02;;;;;;;2.78;1.50;;;;;;;18.36;100.00;101515.28;5022020;28;20542;-77
2021/08/23 07:51:28;;;;;;;2.55;1.48;;;;;;;18.33;100.00;101512.31;5040320;28;20292;-83
2021/08/23 07:53:53;;;;;;;2.80;1.30;;;;;;;18.34;100.00;101513.94;5071623;28;20207;-81
2021/08/23 07:56:26;;;;;;;4.97;1.50;;;;;;;18.29;100.00;101522.28;5037769;28;20448;-75
2021/08/23 07:58:52;;;;;;;2.40;1.40;;;;;;;18.27;100.00;101519.03;5053187;28;20175;-76
2021/08/23 08:01:19;;;;;;;1.42;1.25;;;;;;;18.40;100.00;101519.03;5069968;28;20254;-74
2021/08/23 08:03:45;;;;;;;2.90;1.30;;;;;;;18.56;100.00;101531.41;5022054;28;20720;-82
2021/08/23 08:06:14;;;;;;;4.10;1.50;;;;;;;18.50;100.00;101522.44;5004709;28;20243;-77
2021/08/23 08:08:44;;;;;;;3.17;1.48;;;;;;;18.63;100.00;101529.09;5038841;28;20199;-76
2021/08/23 08:11:09;;;;;;;1.92;1.30;;;;;;;18.56;100.00;101523.97;5055201;28;20223;-79
2021/08/23 08:13:40;;;;;;;2.58;1.17;;;;;;;18.69;100.00;101527.88;4998439;28;1079565;-82
2021/08/23 08:16:06;;;;;;;4.57;1.48;;;;;;;18.75;100.00;101523.88;5037140;28;20228;-77
2021/08/23 08:18:34;;;;;;;1.52;1.25;;;;;;;18.72;100.00;101533.59;5060052;28;20815;-77
2021/08/23 08:20:59;;;;;;;1.92;1.42;;;;;;;19.00;100.00;101529.75;5069403;28;20230;-74
2021/08/23 08:23:25;;;;;;;2.63;1.20;;;;;;;19.20;100.00;101534.84;5026530;28;20196;-80
2021/08/23 08:25:52;;;;;;;3.00;1.35;;;;;;;19.18;100.00;101534.34;5021047;28;20242;-75
2021/08/23 08:28:21;;;;;;;2.90;1.10;;;;;;;19.39;100.00;101534.41;5057613;28;20214;-81
2021/08/23 08:30:46;;;;;;;2.83;1.10;;;;;;;19.51;100.00;101536.66;5037750;28;20219;-76
2021/08/23 08:33:15;;;;;;;2.17;1.17;;;;;;;19.65;100.00;101542.94;5070356;28;20183;-76
2021/08/23 08:35:41;;;;;;;1.40;1.13;;;;;;;19.67;100.00;101547.03;5037073;28;20226;-77
2021/08/23 08:38:07;;;;;;;2.30;1.10;;;;;;;19.50;100.00;101546.03;5032892;28;20194;-76
2021/08/23 08:40:34;;;;;;;2.67;1.08;;;;;;;19.64;100.00;101553.16;5004144;28;20295;-79
2021/08/23 08:43:00;;;;;;;2.20;1.27;;;;;;;19.65;100.00;101549.28;5025800;28;20183;-78
2021/08/23 08:45:30;;;;;;;2.33;1.15;;;;;;;19.54;97.21;101558.06;5024468;28;20231;-77
2021/08/23 08:47:55;;;;;;;1.80;0.90;;;;;;;19.75;98.48;101555.34;5029941;28;20247;-78
2021/08/23 08:50:23;;;;;;;2.00;1.10;;;;;;;19.86;98.03;101558.75;5047995;28;20209;-78
2021/08/23 08:52:49;;;;;;;2.05;0.90;;;;;;;20.09;96.06;101570.31;5044156;28;20180;-79
2021/08/23 08:55:15;;;;;;;2.90;0.95;;;;;;;19.88;92.92;101571.09;5046905;28;20942;-78
2021/08/23 08:57:45;;;;;;;1.27;0.80;;;;;;;19.87;92.38;101568.63;5051002;28;20180;-78
2021/08/23 09:00:11;;;;;;;3.03;1.08;;;;;;;19.98;87.34;101570.88;5037670;28;20188;-80
2021/08/23 09:02:37;;;;;;;1.45;0.90;;;;;;;19.81;87.84;101569.84;5045049;28;20179;-78
2021/08/23 09:05:23;;;;;;;1.27;0.88;;;;;;;19.87;90.55;101568.63;5020658;28;20626;-81
2021/08/23 09:07:53;;;;;;;1.08;0.77;;;;;;;20.00;92.20;101570.53;5054296;28;20211;-79
2021/08/23 09:10:23;;;;;;;2.35;0.82;;;;;;;20.05;89.36;101573.19;5037302;28;20187;-79
2021/08/23 09:13:02;;;;;;;1.85;1.00;;;;;;;20.24;91.72;101580.97;5017131;28;20237;-78
2021/08/23 09:15:28;;;;;;;3.60;0.90;;;;;;;20.68;92.69;101584.56;5051964;28;20234;-81
2021/08/23 09:18:10;;;;;;;2.03;0.85;;;;;;;20.44;83.43;101586.00;5036967;28;20222;-79
2021/08/23 09:20:36;;;;;;;1.35;1.02;;;;;;;20.50;86.14;101591.06;5019879;28;20219;-77
2021/08/23 09:23:09;;;;;;;1.30;0.90;;;;;;;20.62;83.57;101585.84;5015733;28;20729;-78
2021/08/23 09:25:37;;;;;;;2.42;0.90;;;;;;;20.92;81.30;101590.53;5016335;28;20701;-82
2021/08/23 09:28:06;;;;;;;4.10;1.00;;;;;;;21.23;84.54;101590.19;5037364;28;20661;-79
2021/08/23 09:30:32;;;;;;;1.10;0.70;;;;;;;21.42;80.75;101592.72;5018040;28;20245;-73
2021/08/23 09:33:00;;;;;;;1.15;0.90;;;;;;;21.35;81.20;101587.59;5052224;28;20676;-73
2021/08/23 09:35:30;;;;;;;1.00;0.90;;;;;;;21.33;81.37;101589.88;5033760;28;20203;-72
2021/08/23 09:37:56;;;;;;;2.15;0.90;;;;;;;21.19;81.50;101587.56;5018270;28;20282;-73
2021/08/23 09:40:30;;;;;;;1.15;0.90;;;;;;;20.83;82.55;101600.72;5038897;28;20227;-74
2021/08/23 09:43:12;;;;;;;1.25;0.90;;;;;;;21.04;85.29;101601.78;5020218;28;20630;-73
2021/08/23 09:45:50;;;;;;;2.17;0.90;;;;;;;21.30;89.96;101595.25;5020131;28;20941;-76
2021/08/23 09:48:16;;;;;;;2.38;0.80;;;;;;;21.24;84.24;101596.53;5037185;28;20232;-75
2021/08/23 09:50:50;;;;;;;1.20;0.80;;;;;;;20.84;79.16;101603.19;5035505;28;20223;-76
2021/08/23 09:53:19;;;;;;;1.75;0.85;;;;;;;21.10;81.79;101603.28;5034974;28;20193;-73
2021/08/23 09:55:48;;;;;;;2.55;0.90;;;;;;;21.21;80.45;101607.41;5035487;28;20222;-72
2021/08/23 09:58:14;;;;;;;1.30;0.75;;;;;;;20.93;79.57;101597.69;5036341;28;20794;-72
2021/08/23 10:00:43;;;;;;;1.63;0.88;;;;;;;21.05;82.92;101604.25;5051814;28;20305;-72
2021/08/23 10:03:17;;;;;;;2.05;0.90;;;;;;;20.87;75.89;101608.06;5034658;28;20183;-74
2021/08/23 10:05:47;;;;;;;2.85;0.90;;;;;;;20.72;77.54;101612.38;4997799;28;20289;-74
2021/08/23 10:08:19;;;;;;;1.23;0.80;;;;;;;20.89;78.21;101622.38;5018561;28;20225;-75
2021/08/23 10:10:49;;;;;;;0.88;0.80;;;;;;;20.83;79.98;101611.78;5035234;28;20629;-73
2021/08/23 10:13:15;;;;;;;1.55;0.80;;;;;;;20.90;81.60;101617.69;5036752;28;20186;-75
2021/08/23 10:15:40;;;;;;;1.02;0.60;;;;;;;21.35;78.19;101614.44;5014158;28;20212;-75
2021/08/23 10:18:06;;;;;;;1.63;0.88;;;;;;;21.31;75.23;101614.28;5035153;28;20203;-76
2021/08/23 10:20:35;;;;;;;1.50;0.90;;;;;;;20.93;72.00;101617.03;5047115;28;20302;-72
2021/08/23 10:23:03;;;;;;;0.80;0.80;;;;;;;21.05;74.42;101622.78;5033391;28;20191;-75
2021/08/23 10:25:32;;;;;;;1.23;0.80;;;;;;;20.90;72.15;101620.44;5033859;28;20231;-74
2021/08/23 10:28:24;;;;;;;1.33;0.90;;;;;;;21.29;75.40;101627.59;5053020;28;20190;-74
2021/08/23 10:30:52;;;;;;;1.10;0.90;;;;;;;21.36;68.49;101636.25;5031764;28;20255;-72
2021/08/23 10:33:22;;;;;;;0.70;0.70;;;;;;;21.42;69.70;101643.31;5066849;28;20180;-73
2021/08/23 10:35:53;;;;;;;1.27;1.02;;;;;;;21.78;71.05;101625.34;5018872;28;20233;-73
2021/08/23 10:38:20;;;;;;;2.90;1.10;;;;;;;21.66;68.24;101632.66;5036475;28;20262;-72
2021/08/23 10:40:49;;;;;;;1.92;1.40;;;;;;;21.45;59.78;101642.66;5017031;28;20224;-73
2021/08/23 10:43:23;;;;;;;1.45;1.25;;;;;;;21.56;60.16;101643.22;5032491;28;20187;-76
2021/08/23 10:45:49;;;;;;;2.38;1.25;;;;;;;21.65;64.13;101636.56;5018897;28;20645;-77
2021/08/23 10:48:16;;;;;;;2.30;1.20;;;;;;;21.70;57.42;101628.09;5059101;28;20691;-75
2021/08/23 10:50:42;;;;;;;2.53;1.30;;;;;;;21.94;60.94;101634.84;5012317;28;20228;-77
2021/08/23 10:53:14;;;;;;;1.67;1.33;;;;;;;22.20;63.61;101622.66;5033959;28;20179;-76
2021/08/23 10:55:42;;;;;;;2.00;1.20;;;;;;;22.50;60.35;101622.47;5009379;28;20761;-75
2021/08/23 10:58:08;;;;;;;1.75;1.30;;;;;;;22.23;62.70;101630.31;5028753;28;20223;-75
2021/08/23 11:00:43;;;;;;;2.20;1.40;;;;;;;22.44;56.44;101634.06;5025850;28;20266;-78
2021/08/23 11:03:09;;;;;;;2.35;1.40;;;;;;;22.26;58.04;101632.44;5019164;28;20270;-76
2021/08/23 11:05:38;;;;;;;3.63;1.63;;;;;;;22.00;57.39;101641.03;5018894;28;20279;-79
2021/08/23 11:08:12;;;;;;;2.72;1.50;;;;;;;22.01;60.01;101638.75;5036868;28;20214;-77
2021/08/23 11:10:40;;;;;;;4.18;1.38;;;;;;;21.97;56.50;101641.66;5022677;28;20219;-75
2021/08/23 11:13:20;;;;;;;3.97;1.73;;;;;;;21.88;57.11;101636.09;5037526;28;20274;-78
2021/08/23 11:15:46;;;;;;;3.70;1.67;;;;;;;22.01;59.79;101635.97;5018236;28;20223;-77
2021/08/23 11:18:18;;;;;;;2.33;1.42;;;;;;;21.89;57.87;101634.97;5036374;28;20287;-79
2021/08/23 11:20:52;;;;;;;1.80;1.45;;;;;;;21.97;56.80;101639.72;5039838;28;20270;-78
2021/08/23 11:23:25;;;;;;;3.92;1.70;;;;;;;21.72;55.48;101636.88;5057351;28;20214;-78